createdAt,value
2019-03-18T00:02:25.646Z,81.92
2019-03-18T00:04:59.009Z,82.36
2019-03-18T00:07:32.416Z,82.43
2019-03-18T00:10:07.571Z,82.59
2019-03-18T00:12:40.863Z,83.07
2019-03-18T00:15:14.433Z,83.15
2019-03-18T00:17:47.769Z,83.03
2019-03-18T00:20:22.303Z,83.01
2019-03-18T00:22:55.669Z,82.31
2019-03-18T00:25:29.037Z,82.06
2019-03-18T00:28:02.509Z,81.66
2019-03-18T00:30:35.969Z,80.80
2019-03-18T00:33:09.360Z,81.63
2019-03-18T00:35:42.798Z,81.94
2019-03-18T00:38:16.143Z,81.28
2019-03-18T00:40:49.636Z,81.16
2019-03-18T00:43:23.297Z,81.17
2019-03-18T00:45:56.808Z,81.34
2019-03-18T00:48:30.238Z,81.22
2019-03-18T00:51:03.672Z,81.76
2019-03-18T00:53:37.065Z,81.55
2019-03-18T00:56:10.510Z,80.30
2019-03-18T00:58:43.883Z,79.54
2019-03-18T01:01:17.286Z,79.33
2019-03-18T01:03:50.733Z,78.99
2019-03-18T01:06:24.098Z,79.00
2019-03-18T01:08:57.532Z,78.95
2019-03-18T01:11:30.877Z,79.16
2019-03-18T01:14:04.300Z,79.12
2019-03-18T01:16:37.716Z,79.14
2019-03-18T01:19:11.158Z,79.11
2019-03-18T01:21:44.571Z,78.77
2019-03-18T01:24:17.923Z,81.17
2019-03-18T01:26:51.643Z,84.42
2019-03-18T01:29:25.102Z,85.03
2019-03-18T01:31:58.510Z,86.04
2019-03-18T01:34:31.959Z,86.63
2019-03-18T01:37:05.403Z,86.96
2019-03-18T01:39:38.816Z,86.74
2019-03-18T01:42:12.170Z,86.83
2019-03-18T01:44:45.562Z,86.01
2019-03-18T01:47:18.974Z,85.86
2019-03-18T01:49:52.353Z,85.72
2019-03-18T01:52:25.691Z,85.94
2019-03-18T01:54:59.067Z,85.83
2019-03-18T01:57:32.467Z,85.85
2019-03-18T02:00:15.699Z,86.19
2019-03-18T02:02:51.806Z,86.25
2019-03-18T02:05:24.137Z,86.04
2019-03-18T02:07:57.496Z,86.22
2019-03-18T02:10:30.861Z,85.77
2019-03-18T02:13:04.269Z,85.64
2019-03-18T02:15:37.691Z,85.79
2019-03-18T02:18:11.129Z,85.90
2019-03-18T02:20:44.569Z,86.11
2019-03-18T02:23:18.060Z,86.02
2019-03-18T02:25:51.430Z,85.62
2019-03-18T02:28:24.789Z,85.92
2019-03-18T02:30:58.248Z,85.97
2019-03-18T02:33:31.655Z,86.35
2019-03-18T02:36:05.077Z,86.39
2019-03-18T02:38:38.414Z,86.49
2019-03-18T02:41:11.847Z,86.71
2019-03-18T02:43:45.181Z,87.09
2019-03-18T02:46:18.538Z,86.54
2019-03-18T02:48:51.859Z,86.64
2019-03-18T02:51:25.237Z,87.00
2019-03-18T02:53:58.575Z,87.56
2019-03-18T02:56:32.036Z,88.05
2019-03-18T02:59:05.346Z,88.48
2019-03-18T03:01:38.764Z,88.09
2019-03-18T03:04:12.097Z,88.07
2019-03-18T03:06:45.535Z,88.80
2019-03-18T03:09:18.886Z,88.59
2019-03-18T03:11:52.412Z,88.61
2019-03-18T03:14:25.759Z,88.40
2019-03-18T03:16:59.140Z,88.21
2019-03-18T03:19:32.494Z,88.28
2019-03-18T03:22:05.941Z,88.05
2019-03-18T03:24:39.254Z,87.88
2019-03-18T03:27:12.674Z,87.60
2019-03-18T03:29:46.022Z,87.50
2019-03-18T03:32:19.434Z,87.69
2019-03-18T03:34:52.789Z,87.28
2019-03-18T03:37:26.122Z,87.01
2019-03-18T03:39:59.524Z,86.68
2019-03-18T03:42:32.873Z,86.72
2019-03-18T03:45:08.799Z,86.78
2019-03-18T03:47:42.261Z,86.80
2019-03-18T03:50:15.835Z,86.19
2019-03-18T03:52:49.177Z,86.29
2019-03-18T03:55:22.592Z,86.29
2019-03-18T03:57:56.031Z,85.75
2019-03-18T04:00:29.508Z,85.96
2019-03-18T04:03:02.872Z,86.13
2019-03-18T04:05:36.283Z,85.73
2019-03-18T04:08:09.724Z,85.72
2019-03-18T04:10:43.197Z,85.50
2019-03-18T04:13:16.583Z,85.62
2019-03-18T04:15:49.934Z,85.57
2019-03-18T04:18:23.447Z,85.42
2019-03-18T04:20:56.775Z,85.09
2019-03-18T04:23:30.210Z,84.97
2019-03-18T04:26:03.549Z,85.14
2019-03-18T04:28:36.913Z,85.42
2019-03-18T04:31:10.399Z,84.86
2019-03-18T04:33:43.740Z,84.74
2019-03-18T04:36:17.122Z,84.06
2019-03-18T04:38:50.545Z,83.16
2019-03-18T04:41:23.881Z,83.17
2019-03-18T04:43:57.243Z,82.80
2019-03-18T04:46:30.629Z,83.20
2019-03-18T04:49:04.065Z,83.46
2019-03-18T04:51:37.442Z,83.73
2019-03-18T04:54:10.828Z,83.77
2019-03-18T04:56:44.195Z,83.77
2019-03-18T04:59:17.576Z,83.78
2019-03-18T05:01:50.933Z,83.78
2019-03-18T05:04:24.265Z,83.35
2019-03-18T05:06:57.630Z,83.41
2019-03-18T05:09:30.973Z,83.42
2019-03-18T05:12:04.425Z,83.86
2019-03-18T05:14:37.847Z,83.92
2019-03-18T05:17:11.197Z,83.12
2019-03-18T05:19:44.617Z,83.00
2019-03-18T05:22:17.955Z,82.95
2019-03-18T05:24:51.381Z,83.21
2019-03-18T05:27:24.740Z,83.22
2019-03-18T05:29:58.143Z,83.12
2019-03-18T05:32:31.480Z,83.12
2019-03-18T05:35:06.071Z,82.95
2019-03-18T05:37:39.547Z,82.38
2019-03-18T05:40:12.932Z,81.85
2019-03-18T05:42:46.372Z,80.12
2019-03-18T05:45:19.735Z,80.20
2019-03-18T05:47:53.104Z,78.98
2019-03-18T05:50:26.442Z,78.41
2019-03-18T05:52:59.879Z,78.30
2019-03-18T05:55:33.226Z,77.73
2019-03-18T05:58:06.600Z,77.16
2019-03-18T06:00:39.953Z,77.19
2019-03-18T06:03:13.306Z,77.33
2019-03-18T06:05:46.719Z,77.31
2019-03-18T06:08:20.154Z,76.47
2019-03-18T06:10:53.556Z,76.58
2019-03-18T06:13:26.912Z,77.08
2019-03-18T06:16:00.335Z,77.35
2019-03-18T06:18:34.729Z,77.70
2019-03-18T06:21:09.199Z,77.85
2019-03-18T06:23:42.603Z,78.00
2019-03-18T06:26:15.938Z,77.65
2019-03-18T06:28:49.369Z,77.99
2019-03-18T06:31:22.766Z,77.19
2019-03-18T06:33:56.147Z,77.36
2019-03-18T06:36:29.566Z,77.87
2019-03-18T06:39:03.002Z,77.74
2019-03-18T06:41:36.421Z,77.87
2019-03-18T06:44:09.851Z,77.42
2019-03-18T06:46:43.262Z,77.29
2019-03-18T06:49:16.624Z,77.57
2019-03-18T06:51:49.987Z,77.55
2019-03-18T06:54:23.356Z,77.31
2019-03-18T06:56:56.687Z,76.97
2019-03-18T06:59:30.071Z,76.35
2019-03-18T07:02:03.513Z,75.65
2019-03-18T07:04:36.946Z,74.39
2019-03-18T07:07:10.341Z,73.79
2019-03-18T07:09:43.805Z,73.00
2019-03-18T07:12:17.189Z,73.20
2019-03-18T07:14:50.564Z,73.20
2019-03-18T07:17:23.995Z,72.45
2019-03-18T07:19:57.378Z,71.97
2019-03-18T07:22:30.718Z,71.81
2019-03-18T07:25:04.916Z,70.04
2019-03-18T07:27:38.358Z,69.25
2019-03-18T07:30:15.253Z,66.65
2019-03-18T07:32:48.642Z,64.76
2019-03-18T07:35:22.068Z,67.49
2019-03-18T07:37:55.414Z,68.67
2019-03-18T07:40:28.768Z,68.92
2019-03-18T07:43:02.090Z,69.29
2019-03-18T07:45:35.609Z,68.44
2019-03-18T07:48:09.075Z,68.26
2019-03-18T07:50:42.507Z,68.15
2019-03-18T07:53:18.186Z,68.72
2019-03-18T07:55:50.949Z,68.81
2019-03-18T07:58:24.374Z,68.97
2019-03-18T08:00:57.835Z,68.41
2019-03-18T08:03:31.247Z,68.16
2019-03-18T08:06:04.736Z,67.55
2019-03-18T08:08:38.237Z,66.87
2019-03-18T08:11:11.603Z,67.25
2019-03-18T08:13:44.989Z,66.53
2019-03-18T08:16:18.480Z,66.28
2019-03-18T08:18:51.850Z,66.23
2019-03-18T08:21:25.181Z,66.34
2019-03-18T08:23:58.622Z,66.54
2019-03-18T08:26:32.024Z,67.09
2019-03-18T08:29:05.391Z,67.44
2019-03-18T08:31:38.799Z,67.43
2019-03-18T08:34:12.175Z,67.88
2019-03-18T08:36:45.528Z,68.14
2019-03-18T08:39:18.920Z,67.84
2019-03-18T08:41:52.252Z,68.21
2019-03-18T08:44:25.633Z,68.07
2019-03-18T08:46:58.969Z,68.71
2019-03-18T08:49:32.478Z,68.25
2019-03-18T08:52:06.276Z,68.49
2019-03-18T08:54:39.637Z,67.93
2019-03-18T08:57:13.029Z,68.05
2019-03-18T08:59:46.425Z,68.16
2019-03-18T09:02:19.862Z,68.24
2019-03-18T09:04:53.312Z,67.81
2019-03-18T09:07:26.691Z,68.79
2019-03-18T09:10:00.082Z,68.94
2019-03-18T09:12:33.530Z,68.98
2019-03-18T09:15:09.070Z,68.87
2019-03-18T09:17:42.400Z,68.98
2019-03-18T09:20:17.091Z,68.48
2019-03-18T09:22:50.546Z,68.08
2019-03-18T09:25:23.873Z,68.20
2019-03-18T09:27:57.235Z,68.19
2019-03-18T09:30:30.730Z,67.78
2019-03-18T09:33:04.222Z,67.99
2019-03-18T09:35:37.598Z,67.67
2019-03-18T09:38:10.952Z,66.81
2019-03-18T09:40:44.396Z,66.80
2019-03-18T09:43:17.817Z,66.29
2019-03-18T09:45:51.252Z,66.47
2019-03-18T09:48:24.581Z,66.41
2019-03-18T09:50:58.027Z,66.53
2019-03-18T09:53:31.431Z,65.77
2019-03-18T09:56:04.859Z,65.90
2019-03-18T09:58:38.194Z,64.68
2019-03-18T10:01:11.548Z,64.78
2019-03-18T10:03:44.977Z,64.58
2019-03-18T10:06:18.411Z,64.92
2019-03-18T10:08:51.825Z,64.72
2019-03-18T10:11:25.262Z,65.15
2019-03-18T10:13:58.666Z,65.31
2019-03-18T10:16:32.050Z,64.47
2019-03-18T10:19:05.535Z,63.99
2019-03-18T10:21:38.994Z,63.87
2019-03-18T10:24:15.360Z,64.23
2019-03-18T10:26:48.719Z,63.86
2019-03-18T10:29:22.057Z,64.40
2019-03-18T10:31:55.410Z,64.30
2019-03-18T10:34:28.850Z,64.39
2019-03-18T10:37:02.287Z,64.68
2019-03-18T10:39:35.637Z,64.34
2019-03-18T10:42:09.121Z,63.56
2019-03-18T10:44:42.468Z,63.09
2019-03-18T10:47:15.828Z,63.07
2019-03-18T10:49:49.342Z,62.75
2019-03-18T10:52:22.735Z,62.88
2019-03-18T10:54:56.104Z,61.09
2019-03-18T10:57:29.468Z,60.62
2019-03-18T11:00:03.090Z,59.86
2019-03-18T11:02:36.439Z,60.16
2019-03-18T11:05:10.322Z,60.00
2019-03-18T11:07:43.862Z,59.51
2019-03-18T11:10:17.291Z,60.09
2019-03-18T11:12:50.717Z,59.17
2019-03-18T11:15:24.214Z,59.53
2019-03-18T11:17:57.653Z,59.89
2019-03-18T11:20:31.085Z,58.99
2019-03-18T11:23:04.516Z,58.63
2019-03-18T11:25:37.870Z,57.31
2019-03-18T11:28:11.211Z,56.38
2019-03-18T11:30:44.571Z,55.83
2019-03-18T11:33:17.907Z,57.22
2019-03-18T11:35:51.932Z,55.65
2019-03-18T11:38:25.349Z,55.51
2019-03-18T11:40:58.801Z,55.69
2019-03-18T11:43:32.208Z,56.20
2019-03-18T11:46:05.647Z,56.43
2019-03-18T11:48:39.194Z,57.68
2019-03-18T11:51:12.629Z,58.38
2019-03-18T11:53:46.320Z,63.07
2019-03-18T11:56:19.741Z,64.64
2019-03-18T11:58:53.075Z,66.21
2019-03-18T12:01:26.551Z,68.79
2019-03-18T12:03:59.981Z,69.07
2019-03-18T12:06:33.424Z,69.31
2019-03-18T12:09:07.023Z,69.81
2019-03-18T12:11:40.473Z,69.24
2019-03-18T12:14:13.824Z,69.21
2019-03-18T12:16:47.377Z,69.18
2019-03-18T12:19:23.065Z,72.78
2019-03-18T12:21:55.928Z,71.20
2019-03-18T12:24:29.258Z,73.83
2019-03-18T12:27:02.697Z,73.89
2019-03-18T12:29:36.096Z,74.70
2019-03-18T12:32:09.530Z,74.36
2019-03-18T12:34:42.968Z,72.37
2019-03-18T12:37:16.414Z,73.57
2019-03-18T12:39:49.762Z,71.81
2019-03-18T12:42:24.113Z,72.47
2019-03-18T12:44:57.464Z,66.52
2019-03-18T12:47:30.984Z,67.78
2019-03-18T12:50:07.520Z,66.25
2019-03-18T12:52:41.016Z,66.62
2019-03-18T12:55:14.949Z,66.14
2019-03-18T12:57:48.424Z,65.52
2019-03-18T13:00:36.226Z,63.70
2019-03-18T13:03:09.699Z,65.01
2019-03-18T13:05:43.032Z,63.18
2019-03-18T13:08:16.459Z,63.58
2019-03-18T13:10:49.787Z,63.60
2019-03-18T13:13:23.148Z,62.85
2019-03-18T13:15:56.600Z,62.88
2019-03-18T13:18:29.975Z,62.82
2019-03-18T13:21:08.187Z,63.09
2019-03-18T13:23:38.497Z,61.61
2019-03-18T13:26:11.828Z,60.77
2019-03-18T13:28:45.356Z,63.16
2019-03-18T13:31:18.781Z,64.09
2019-03-18T13:33:52.204Z,70.35
2019-03-18T13:36:25.715Z,75.22
2019-03-18T13:38:59.132Z,78.14
2019-03-18T13:41:32.607Z,78.93
2019-03-18T13:44:06.058Z,76.20
2019-03-18T13:46:39.428Z,78.30
2019-03-18T13:49:12.649Z,78.25
2019-03-18T13:51:47.729Z,77.00
2019-03-18T13:54:21.167Z,75.39
2019-03-18T13:56:54.513Z,75.09
2019-03-18T13:59:28.196Z,75.88
2019-03-18T14:02:01.490Z,74.92
2019-03-18T14:04:34.912Z,75.99
2019-03-18T14:07:08.328Z,77.29
2019-03-18T14:09:41.847Z,77.28
2019-03-18T14:12:15.205Z,78.40
2019-03-18T14:14:48.675Z,76.93
2019-03-18T14:17:22.178Z,77.98
2019-03-18T14:19:55.600Z,76.39
2019-03-18T14:22:29.028Z,74.55
2019-03-18T14:25:02.448Z,76.29
2019-03-18T14:27:35.819Z,72.81
2019-03-18T14:30:12.324Z,70.21
2019-03-18T14:32:45.841Z,70.78
2019-03-18T14:35:21.292Z,69.54
2019-03-18T14:37:54.395Z,69.61
2019-03-18T14:40:27.847Z,68.52
2019-03-18T14:43:01.186Z,63.93
2019-03-18T14:45:34.630Z,63.38
2019-03-18T14:48:07.982Z,62.73
2019-03-18T14:50:41.424Z,60.46
2019-03-18T14:53:14.906Z,62.97
2019-03-18T14:55:48.331Z,60.93
2019-03-18T14:58:21.664Z,59.15
2019-03-18T15:00:55.099Z,60.07
2019-03-18T15:03:28.595Z,59.36
2019-03-18T15:06:02.124Z,60.12
2019-03-18T15:08:35.564Z,60.80
2019-03-18T15:11:09.061Z,60.48
2019-03-18T15:13:42.550Z,59.00
2019-03-18T15:16:15.940Z,57.98
2019-03-18T15:18:49.350Z,57.73
2019-03-18T15:21:23.181Z,58.44
2019-03-18T15:23:56.542Z,59.47
2019-03-18T15:26:30.039Z,58.21
2019-03-18T15:29:03.454Z,58.86
2019-03-18T15:31:36.895Z,60.13
2019-03-18T15:34:10.665Z,59.38
2019-03-18T15:36:44.138Z,59.17
2019-03-18T15:39:17.527Z,58.41
2019-03-18T15:41:50.885Z,58.37
2019-03-18T15:44:24.477Z,59.67
2019-03-18T15:46:57.940Z,58.73
2019-03-18T15:49:31.346Z,58.75
2019-03-18T15:52:11.051Z,59.34
2019-03-18T15:54:39.987Z,59.37
2019-03-18T15:57:13.398Z,59.09
2019-03-18T15:59:47.041Z,54.48
2019-03-18T16:02:20.456Z,53.29
2019-03-18T16:04:53.903Z,49.83
2019-03-18T16:07:27.393Z,49.96
2019-03-18T16:10:00.841Z,54.38
2019-03-18T16:12:37.246Z,56.71
2019-03-18T16:15:13.002Z,57.94
2019-03-18T16:17:46.451Z,59.79
2019-03-18T16:20:28.687Z,59.52
2019-03-18T16:23:02.053Z,58.51
2019-03-18T16:25:35.472Z,55.17
2019-03-18T16:28:08.873Z,53.60
2019-03-18T16:30:42.369Z,54.28
2019-03-18T16:33:15.916Z,51.97
2019-03-18T16:35:52.650Z,53.36
2019-03-18T16:38:26.573Z,51.90
2019-03-18T16:41:00.312Z,52.54
2019-03-18T16:43:33.726Z,52.55
2019-03-18T16:46:07.210Z,51.15
2019-03-18T16:48:40.539Z,50.69
2019-03-18T16:51:14.004Z,51.04
2019-03-18T16:53:47.514Z,51.68
2019-03-18T16:56:21.030Z,52.14
2019-03-18T16:58:54.438Z,53.68
2019-03-18T17:01:27.881Z,57.62
2019-03-18T17:04:01.237Z,58.89
2019-03-18T17:06:37.649Z,59.66
2019-03-18T17:09:09.817Z,61.36
2019-03-18T17:11:43.254Z,61.23
2019-03-18T17:14:16.666Z,61.87
2019-03-18T17:16:50.049Z,62.35
2019-03-18T17:19:23.474Z,62.80
2019-03-18T17:21:56.884Z,63.39
2019-03-18T17:24:30.361Z,63.56
2019-03-18T17:27:03.902Z,64.21
2019-03-18T17:29:37.387Z,64.77
2019-03-18T17:32:10.762Z,64.75
2019-03-18T17:34:44.159Z,65.16
2019-03-18T17:37:17.485Z,66.30
2019-03-18T17:39:50.810Z,66.10
2019-03-18T17:42:24.182Z,66.58
2019-03-18T17:44:57.556Z,66.78
2019-03-18T17:47:31.080Z,67.16
2019-03-18T17:50:07.121Z,67.91
2019-03-18T17:52:40.637Z,68.57
2019-03-18T17:55:14.025Z,70.30
2019-03-18T17:57:47.460Z,71.58
2019-03-18T18:00:25.100Z,72.42
2019-03-18T18:02:58.563Z,71.77
2019-03-18T18:05:32.083Z,71.89
2019-03-18T18:08:05.666Z,72.34
2019-03-18T18:10:39.041Z,72.65
2019-03-18T18:13:12.476Z,72.90
2019-03-18T18:15:45.987Z,73.01
2019-03-18T18:18:19.434Z,73.44
2019-03-18T18:20:52.835Z,73.99
2019-03-18T18:23:26.321Z,73.92
2019-03-18T18:25:59.752Z,72.06
2019-03-18T18:28:33.134Z,71.94
2019-03-18T18:31:06.651Z,71.60
2019-03-18T18:33:40.106Z,73.38
2019-03-18T18:36:13.460Z,78.11
2019-03-18T18:38:46.991Z,80.42
2019-03-18T18:41:20.418Z,82.52
2019-03-18T18:43:53.918Z,82.09
2019-03-18T18:46:27.334Z,83.81
2019-03-18T18:49:00.734Z,83.06
2019-03-18T18:51:34.331Z,83.13
2019-03-18T18:54:07.772Z,84.66
2019-03-18T18:56:41.272Z,83.94
2019-03-18T18:59:14.766Z,86.21
2019-03-18T19:01:48.371Z,86.26
2019-03-18T19:04:21.838Z,86.17
2019-03-18T19:06:55.324Z,86.53
2019-03-18T19:09:28.833Z,85.70
2019-03-18T19:12:02.338Z,86.14
2019-03-18T19:14:35.812Z,85.11
2019-03-18T19:17:09.749Z,84.67
2019-03-18T19:19:43.244Z,85.03
2019-03-18T19:22:16.681Z,85.03
2019-03-18T19:24:50.082Z,84.54
2019-03-18T19:27:23.587Z,84.97
2019-03-18T19:29:57.065Z,86.87
2019-03-18T19:32:30.458Z,88.45
2019-03-18T19:35:04.261Z,88.66
2019-03-18T19:37:37.805Z,88.76
2019-03-18T19:40:14.954Z,87.71
2019-03-18T19:42:48.464Z,87.47
2019-03-18T19:45:21.980Z,87.83
2019-03-18T19:47:55.498Z,87.73
2019-03-18T19:50:30.389Z,88.30
2019-03-18T19:53:04.038Z,87.70
2019-03-18T19:55:37.330Z,87.40
2019-03-18T19:58:10.807Z,88.64
2019-03-18T20:00:44.206Z,88.93
2019-03-18T20:03:18.720Z,88.73
2019-03-18T20:05:52.172Z,89.24
2019-03-18T20:08:28.636Z,90.00
2019-03-18T20:11:02.024Z,89.54
2019-03-18T20:13:35.494Z,89.68
2019-03-18T20:16:08.979Z,89.26
2019-03-18T20:18:42.332Z,89.98
2019-03-18T20:21:15.684Z,90.08
2019-03-18T20:24:00.146Z,90.42
2019-03-18T20:26:24.351Z,89.67
2019-03-18T20:28:57.835Z,89.73
2019-03-18T20:31:31.393Z,90.48
2019-03-18T20:34:05.201Z,90.52
2019-03-18T20:36:38.621Z,90.02
2019-03-18T20:39:12.095Z,88.54
2019-03-18T20:41:45.518Z,88.06
2019-03-18T20:44:18.987Z,88.22
2019-03-18T20:46:52.466Z,88.32
2019-03-18T20:49:28.861Z,88.63
2019-03-18T20:52:02.330Z,88.27
2019-03-18T20:54:37.649Z,87.41
2019-03-18T20:57:11.059Z,87.83
2019-03-18T20:59:44.499Z,88.67
2019-03-18T21:02:18.017Z,88.23
2019-03-18T21:04:51.553Z,86.75
2019-03-18T21:07:24.972Z,87.74
2019-03-18T21:09:58.346Z,89.03
2019-03-18T21:12:31.751Z,89.38
2019-03-18T21:15:07.346Z,88.84
2019-03-18T21:17:40.796Z,87.99
2019-03-18T21:20:19.469Z,86.98
2019-03-18T21:22:52.818Z,88.48
2019-03-18T21:25:26.333Z,89.09
2019-03-18T21:27:59.704Z,89.61
2019-03-18T21:30:33.176Z,88.48
2019-03-18T21:33:06.768Z,88.50
2019-03-18T21:35:40.259Z,88.02
2019-03-18T21:38:13.674Z,88.36
2019-03-18T21:40:47.191Z,89.00
2019-03-18T21:43:20.542Z,90.41
2019-03-18T21:45:54.036Z,90.45
2019-03-18T21:48:27.453Z,89.87
2019-03-18T21:51:01.041Z,90.19
2019-03-18T21:53:34.417Z,89.73
2019-03-18T21:56:07.807Z,90.01
2019-03-18T21:58:41.157Z,90.96
2019-03-18T22:01:14.603Z,90.67
2019-03-18T22:03:47.941Z,90.85
2019-03-18T22:06:21.396Z,90.21
2019-03-18T22:08:54.745Z,89.66
2019-03-18T22:11:28.261Z,89.78
2019-03-18T22:14:01.741Z,89.97
2019-03-18T22:16:35.126Z,90.73
2019-03-18T22:19:08.529Z,90.97
2019-03-18T22:21:41.975Z,91.33
2019-03-18T22:24:15.417Z,91.82
2019-03-18T22:26:48.897Z,91.84
2019-03-18T22:29:22.264Z,92.10
2019-03-18T22:31:55.679Z,91.84
2019-03-18T22:34:29.061Z,91.90
2019-03-18T22:37:02.472Z,91.82
2019-03-18T22:39:35.820Z,91.54
2019-03-18T22:42:09.200Z,91.61
2019-03-18T22:44:42.615Z,92.11
2019-03-18T22:47:16.103Z,93.13
2019-03-18T22:49:49.481Z,92.70
2019-03-18T22:52:22.818Z,92.83
2019-03-18T22:54:56.405Z,93.24
2019-03-18T22:57:29.862Z,93.51
2019-03-18T23:00:03.710Z,93.15
2019-03-18T23:02:37.132Z,92.49
2019-03-18T23:05:13.759Z,92.45
2019-03-18T23:07:47.255Z,91.87
2019-03-18T23:10:20.924Z,91.78
2019-03-18T23:12:54.343Z,92.07
2019-03-18T23:15:27.703Z,92.11
2019-03-18T23:18:01.037Z,92.44
2019-03-18T23:20:34.497Z,92.59
2019-03-18T23:23:07.910Z,92.65
2019-03-18T23:25:41.340Z,92.05
2019-03-18T23:28:14.745Z,92.09
2019-03-18T23:30:48.126Z,92.34
2019-03-18T23:33:21.549Z,91.96
2019-03-18T23:35:55.091Z,92.33
2019-03-18T23:38:28.423Z,92.54
2019-03-18T23:41:01.801Z,92.59
2019-03-18T23:43:35.216Z,93.09
2019-03-18T23:46:08.597Z,93.36
2019-03-18T23:48:41.910Z,93.03
2019-03-18T23:51:15.557Z,92.84
2019-03-18T23:53:48.934Z,93.85
2019-03-18T23:56:22.366Z,93.98
2019-03-18T23:58:55.800Z,93.69
